sensor_id;sensor_type;location;lat;lon;timestamp;pressure;altitude;pressure_sealevel;temperature;humidity
76095;BME280;64821;13.710;100.604;2024-01-11T00:00:29;101215.88;;;42.29;33.22
76095;BME280;64821;13.710;100.604;2024-01-11T00:01:33;101227.94;;;42.36;33.35
76095;BME280;64821;13.710;100.604;2024-01-11T00:02:37;101234.28;;;42.37;33.91
76095;BME280;64821;13.710;100.604;2024-01-11T00:03:41;101236.72;;;42.38;33.58
76095;BME280;64821;13.710;100.604;2024-01-11T00:04:44;101240.28;;;42.39;33.71
76095;BME280;64821;13.710;100.604;2024-01-11T00:05:48;101195.22;;;42.00;33.46
76095;BME280;64821;13.710;100.604;2024-01-11T00:06:52;101239.50;;;42.38;33.28
76095;BME280;64821;13.710;100.604;2024-01-11T00:07:56;101245.88;;;42.39;33.26
76095;BME280;64821;13.710;100.604;2024-01-11T00:09:00;101251.84;;;42.41;33.45
76095;BME280;64821;13.710;100.604;2024-01-11T00:10:05;101251.84;;;42.41;33.33
76095;BME280;64821;13.710;100.604;2024-01-11T00:11:08;101249.84;;;42.41;33.38
76095;BME280;64821;13.710;100.604;2024-01-11T00:12:14;101255.03;;;42.39;34.57
76095;BME280;64821;13.710;100.604;2024-01-11T00:13:18;101257.41;;;42.41;33.27
76095;BME280;64821;13.710;100.604;2024-01-11T00:14:22;101250.63;;;42.38;33.64
76095;BME280;64821;13.710;100.604;2024-01-11T00:15:26;101268.53;;;42.41;33.26
76095;BME280;64821;13.710;100.604;2024-01-11T00:16:30;101266.56;;;42.41;33.85
76095;BME280;64821;13.710;100.604;2024-01-11T00:17:34;101259.75;;;42.35;33.19
76095;BME280;64821;13.710;100.604;2024-01-11T00:18:38;101265.75;;;42.41;33.84
76095;BME280;64821;13.710;100.604;2024-01-11T00:19:42;101273.38;;;42.44;33.75
76095;BME280;64821;13.710;100.604;2024-01-11T00:20:46;101270.59;;;42.44;33.23
76095;BME280;64821;13.710;100.604;2024-01-11T00:21:50;101270.22;;;42.45;33.80
76095;BME280;64821;13.710;100.604;2024-01-11T00:22:54;101271.06;;;42.50;33.69
76095;BME280;64821;13.710;100.604;2024-01-11T00:23:58;101271.44;;;42.48;33.21
76095;BME280;64821;13.710;100.604;2024-01-11T00:25:01;101272.25;;;42.49;33.33
76095;BME280;64821;13.710;100.604;2024-01-11T00:26:06;101269.41;;;42.45;33.18
76095;BME280;64821;13.710;100.604;2024-01-11T00:27:09;101282.16;;;42.46;33.43
76095;BME280;64821;13.710;100.604;2024-01-11T00:28:15;101280.97;;;42.47;34.48
76095;BME280;64821;13.710;100.604;2024-01-11T00:29:19;101281.41;;;42.49;33.21
76095;BME280;64821;13.710;100.604;2024-01-11T00:30:23;101195.59;;;41.98;33.57
76095;BME280;64821;13.710;100.604;2024-01-11T00:31:27;101285.88;;;42.57;33.05
76095;BME280;64821;13.710;100.604;2024-01-11T00:32:31;101284.31;;;42.60;33.38
76095;BME280;64821;13.710;100.604;2024-01-11T00:33:35;101234.56;;;42.28;33.05
76095;BME280;64821;13.710;100.604;2024-01-11T00:34:39;101289.09;;;42.59;33.18
76095;BME280;64821;13.710;100.604;2024-01-11T00:35:43;101285.91;;;42.61;33.79
76095;BME280;64821;13.710;100.604;2024-01-11T00:36:47;101291.91;;;42.63;33.22
76095;BME280;64821;13.710;100.604;2024-01-11T00:37:51;101297.47;;;42.63;33.16
76095;BME280;64821;13.710;100.604;2024-01-11T00:38:55;101295.84;;;42.62;32.97
76095;BME280;64821;13.710;100.604;2024-01-11T00:40:02;101300.75;;;42.68;34.07
76095;BME280;64821;13.710;100.604;2024-01-11T00:41:06;101296.00;;;42.72;33.44
76095;BME280;64821;13.710;100.604;2024-01-11T00:42:11;101301.19;;;42.74;33.30
76095;BME280;64821;13.710;100.604;2024-01-11T00:43:16;101294.00;;;42.73;34.10
76095;BME280;64821;13.710;100.604;2024-01-11T00:44:20;101304.44;;;42.76;33.31
76095;BME280;64821;13.710;100.604;2024-01-11T00:45:24;101300.38;;;42.73;32.92
76095;BME280;64821;13.710;100.604;2024-01-11T00:46:28;101302.75;;;42.71;33.32
76095;BME280;64821;13.710;100.604;2024-01-11T00:47:32;101307.94;;;42.73;33.46
76095;BME280;64821;13.710;100.604;2024-01-11T00:48:36;101277.47;;;42.54;33.12
76095;BME280;64821;13.710;100.604;2024-01-11T00:49:40;101308.03;;;42.76;33.42
76095;BME280;64821;13.710;100.604;2024-01-11T00:50:44;101319.97;;;42.77;33.44
76095;BME280;64821;13.710;100.604;2024-01-11T00:51:48;101313.22;;;42.78;33.05
76095;BME280;64821;13.710;100.604;2024-01-11T00:52:52;101319.63;;;42.82;33.31
76095;BME280;64821;13.710;100.604;2024-01-11T00:53:56;101278.69;;;42.56;33.11
76095;BME280;64821;13.710;100.604;2024-01-11T00:54:59;101289.41;;;42.54;33.50
76095;BME280;64821;13.710;100.604;2024-01-11T00:56:04;101326.00;;;42.82;33.50
76095;BME280;64821;13.710;100.604;2024-01-11T00:57:07;101281.47;;;42.56;33.10
76095;BME280;64821;13.710;100.604;2024-01-11T00:58:11;101332.44;;;42.90;32.71
76095;BME280;64821;13.710;100.604;2024-01-11T00:59:17;101327.22;;;42.85;33.87
76095;BME280;64821;13.710;100.604;2024-01-11T01:00:21;101338.00;;;42.90;33.29
76095;BME280;64821;13.710;100.604;2024-01-11T01:01:25;101340.91;;;42.97;32.89
76095;BME280;64821;13.710;100.604;2024-01-11T01:02:29;101343.69;;;42.97;33.33
76095;BME280;64821;13.710;100.604;2024-01-11T01:03:33;101343.69;;;42.97;33.28
76095;BME280;64821;13.710;100.604;2024-01-11T01:04:38;101342.09;;;43.00;33.55
76095;BME280;64821;13.710;100.604;2024-01-11T01:05:42;101353.66;;;42.98;32.67
76095;BME280;64821;13.710;100.604;2024-01-11T01:06:46;101344.56;;;43.05;33.11
76095;BME280;64821;13.710;100.604;2024-01-11T01:07:50;101352.00;;;42.94;33.04
76095;BME280;64821;13.710;100.604;2024-01-11T01:08:55;101349.28;;;42.97;33.36
76095;BME280;64821;13.710;100.604;2024-01-11T01:09:59;101350.41;;;42.93;33.00
76095;BME280;64821;13.710;100.604;2024-01-11T01:11:03;101315.00;;;42.63;33.08
76095;BME280;64821;13.710;100.604;2024-01-11T01:12:07;101358.75;;;42.89;33.00
76095;BME280;64821;13.710;100.604;2024-01-11T01:13:11;101364.75;;;42.95;33.17
76095;BME280;64821;13.710;100.604;2024-01-11T01:14:16;101363.63;;;42.99;33.13
76095;BME280;64821;13.710;100.604;2024-01-11T01:15:20;101369.59;;;42.98;33.26
76095;BME280;64821;13.710;100.604;2024-01-11T01:16:24;101370.41;;;43.02;32.60
76095;BME280;64821;13.710;100.604;2024-01-11T01:17:28;101360.91;;;43.06;32.68
76095;BME280;64821;13.710;100.604;2024-01-11T01:18:32;101362.94;;;43.09;32.50
76095;BME280;64821;13.710;100.604;2024-01-11T01:19:36;101366.19;;;43.15;32.56
76095;BME280;64821;13.710;100.604;2024-01-11T01:20:40;101377.81;;;43.17;32.75
76095;BME280;64821;13.710;100.604;2024-01-11T01:21:43;101357.81;;;43.15;32.91
76095;BME280;64821;13.710;100.604;2024-01-11T01:22:47;101369.84;;;43.19;32.61
76095;BME280;64821;13.710;100.604;2024-01-11T01:23:51;101372.66;;;43.23;32.45
76095;BME280;64821;13.710;100.604;2024-01-11T01:24:55;101351.91;;;43.16;32.34
76095;BME280;64821;13.710;100.604;2024-01-11T01:25:59;101376.38;;;43.34;32.64
76095;BME280;64821;13.710;100.604;2024-01-11T01:27:05;101362.84;;;43.02;32.88
76095;BME280;64821;13.710;100.604;2024-01-11T01:28:09;101376.22;;;43.19;32.53
76095;BME280;64821;13.710;100.604;2024-01-11T01:29:13;101383.88;;;43.26;32.33
76095;BME280;64821;13.710;100.604;2024-01-11T01:30:19;101384.75;;;43.34;32.68
76095;BME280;64821;13.710;100.604;2024-01-11T01:31:23;101378.03;;;43.42;32.44
76095;BME280;64821;13.710;100.604;2024-01-11T01:32:27;101380.88;;;43.49;32.12
76095;BME280;64821;13.710;100.604;2024-01-11T01:33:31;101376.47;;;43.44;32.24
76095;BME280;64821;13.710;100.604;2024-01-11T01:34:35;101378.47;;;43.44;32.18
76095;BME280;64821;13.710;100.604;2024-01-11T01:35:39;101368.00;;;43.34;32.45
76095;BME280;64821;13.710;100.604;2024-01-11T01:36:43;101386.09;;;43.50;32.24
76095;BME280;64821;13.710;100.604;2024-01-11T01:37:47;101383.78;;;43.56;32.26
76095;BME280;64821;13.710;100.604;2024-01-11T01:38:51;101381.44;;;43.58;31.96
76095;BME280;64821;13.710;100.604;2024-01-11T01:39:55;101390.97;;;43.57;31.96
76095;BME280;64821;13.710;100.604;2024-01-11T01:40:59;101394.59;;;43.61;32.07
76095;BME280;64821;13.710;100.604;2024-01-11T01:42:03;101391.09;;;43.68;32.16
76095;BME280;64821;13.710;100.604;2024-01-11T01:43:07;101396.69;;;43.71;32.39
76095;BME280;64821;13.710;100.604;2024-01-11T01:44:11;101385.41;;;43.61;32.04
76095;BME280;64821;13.710;100.604;2024-01-11T01:45:15;101399.94;;;43.77;32.28
76095;BME280;64821;13.710;100.604;2024-01-11T01:46:23;101370.75;;;43.67;32.68
76095;BME280;64821;13.710;100.604;2024-01-11T01:47:28;101398.38;;;43.83;32.03
76095;BME280;64821;13.710;100.604;2024-01-11T01:48:32;101394.81;;;43.86;31.90
76095;BME280;64821;13.710;100.604;2024-01-11T01:49:37;101395.63;;;43.86;31.70
76095;BME280;64821;13.710;100.604;2024-01-11T01:50:42;101398.78;;;43.85;31.97
76095;BME280;64821;13.710;100.604;2024-01-11T01:51:46;101399.59;;;43.85;31.82
76095;BME280;64821;13.710;100.604;2024-01-11T01:52:50;101395.59;;;43.83;31.70
76095;BME280;64821;13.710;100.604;2024-01-11T01:53:54;101402.00;;;43.90;31.70
76095;BME280;64821;13.710;100.604;2024-01-11T01:54:59;101398.44;;;43.90;31.82
76095;BME280;64821;13.710;100.604;2024-01-11T01:56:05;101398.81;;;43.88;31.81
76095;BME280;64821;13.710;100.604;2024-01-11T01:57:10;101398.44;;;43.90;31.65
76095;BME280;64821;13.710;100.604;2024-01-11T01:58:15;101399.59;;;43.85;31.90
76095;BME280;64821;13.710;100.604;2024-01-11T01:59:21;101409.91;;;43.81;31.59
76095;BME280;64821;13.710;100.604;2024-01-11T02:00:26;101410.69;;;43.78;31.85
76095;BME280;64821;13.710;100.604;2024-01-11T02:01:33;101417.88;;;43.79;31.56
76095;BME280;64821;13.710;100.604;2024-01-11T02:02:38;101411.84;;;43.74;31.97
76095;BME280;64821;13.710;100.604;2024-01-11T02:03:43;101417.47;;;43.77;31.68
76095;BME280;64821;13.710;100.604;2024-01-11T02:04:50;101412.72;;;43.81;31.73
76095;BME280;64821;13.710;100.604;2024-01-11T02:05:54;101424.25;;;43.80;32.06
76095;BME280;64821;13.710;100.604;2024-01-11T02:06:58;101417.53;;;43.84;31.77
76095;BME280;64821;13.710;100.604;2024-01-11T02:08:04;101405.66;;;43.95;31.57
76095;BME280;64821;13.710;100.604;2024-01-11T02:09:11;101410.91;;;44.00;31.66
76095;BME280;64821;13.710;100.604;2024-01-11T02:10:17;101408.94;;;44.04;31.50
76095;BME280;64821;13.710;100.604;2024-01-11T02:11:21;101411.00;;;44.14;31.37
76095;BME280;64821;13.710;100.604;2024-01-11T02:12:25;101409.81;;;44.15;31.37
76095;BME280;64821;13.710;100.604;2024-01-11T02:13:29;101417.06;;;44.23;31.04
76095;BME280;64821;13.710;100.604;2024-01-11T02:14:37;101411.94;;;44.32;31.34
76095;BME280;64821;13.710;100.604;2024-01-11T02:15:41;101387.53;;;44.22;31.07
76095;BME280;64821;13.710;100.604;2024-01-11T02:16:47;101411.53;;;44.34;31.26
76095;BME280;64821;13.710;100.604;2024-01-11T02:17:50;101388.72;;;44.21;31.31
76095;BME280;64821;13.710;100.604;2024-01-11T02:18:55;101407.16;;;44.33;31.15
76095;BME280;64821;13.710;100.604;2024-01-11T02:19:59;101404.41;;;44.36;31.03
76095;BME280;64821;13.710;100.604;2024-01-11T02:21:09;101385.16;;;44.24;31.10
76095;BME280;64821;13.710;100.604;2024-01-11T02:22:17;101408.00;;;44.37;31.20
76095;BME280;64821;13.710;100.604;2024-01-11T02:23:25;101408.47;;;44.46;31.15
76095;BME280;64821;13.710;100.604;2024-01-11T02:24:32;101402.09;;;44.52;30.84
76095;BME280;64821;13.710;100.604;2024-01-11T02:25:36;101409.69;;;44.52;30.97
76095;BME280;64821;13.710;100.604;2024-01-11T02:26:58;101411.44;;;44.74;30.56
76095;BME280;64821;13.710;100.604;2024-01-11T02:28:02;101407.34;;;44.68;30.94
76095;BME280;64821;13.710;100.604;2024-01-11T02:29:06;101403.38;;;44.69;30.81
76095;BME280;64821;13.710;100.604;2024-01-11T02:30:10;101410.56;;;44.70;30.52
76095;BME280;64821;13.710;100.604;2024-01-11T02:31:14;101411.78;;;44.73;30.39
76095;BME280;64821;13.710;100.604;2024-01-11T02:32:19;101408.19;;;44.72;30.48
76095;BME280;64821;13.710;100.604;2024-01-11T02:33:23;101406.19;;;44.73;30.25
76095;BME280;64821;13.710;100.604;2024-01-11T02:34:27;101409.84;;;44.80;30.05
76095;BME280;64821;13.710;100.604;2024-01-11T02:35:32;101415.03;;;44.82;30.23
76095;BME280;64821;13.710;100.604;2024-01-11T02:36:37;101414.25;;;44.81;30.64
76095;BME280;64821;13.710;100.604;2024-01-11T02:37:41;101408.25;;;44.83;30.32
76095;BME280;64821;13.710;100.604;2024-01-11T02:38:45;101413.88;;;44.90;30.32
76095;BME280;64821;13.710;100.604;2024-01-11T02:39:51;101403.47;;;44.87;29.57
76095;BME280;64821;13.710;100.604;2024-01-11T02:40:55;101409.91;;;44.94;29.62
76095;BME280;64821;13.710;100.604;2024-01-11T02:41:59;101405.50;;;44.90;30.24
76095;BME280;64821;13.710;100.604;2024-01-11T02:43:08;101404.28;;;44.91;29.56
76095;BME280;64821;13.710;100.604;2024-01-11T02:44:12;101414.69;;;44.90;30.23
76095;BME280;64821;13.710;100.604;2024-01-11T02:45:16;101415.50;;;44.94;30.26
76095;BME280;64821;13.710;100.604;2024-01-11T02:46:20;101413.13;;;45.00;30.30
76095;BME280;64821;13.710;100.604;2024-01-11T02:47:24;101406.75;;;45.03;30.07
76095;BME280;64821;13.710;100.604;2024-01-11T02:48:28;101406.34;;;45.08;29.94
76095;BME280;64821;13.710;100.604;2024-01-11T02:49:33;101403.97;;;45.10;29.30
76095;BME280;64821;13.710;100.604;2024-01-11T02:50:38;101406.41;;;45.12;29.54
76095;BME280;64821;13.710;100.604;2024-01-11T02:51:41;101405.63;;;45.15;29.65
76095;BME280;64821;13.710;100.604;2024-01-11T02:52:45;101408.00;;;45.20;29.77
76095;BME280;64821;13.710;100.604;2024-01-11T02:53:49;101400.00;;;45.18;29.43
76095;BME280;64821;13.710;100.604;2024-01-11T02:54:54;101380.38;;;45.04;28.72
76095;BME280;64821;13.710;100.604;2024-01-11T02:55:58;101406.78;;;45.17;29.76
76095;BME280;64821;13.710;100.604;2024-01-11T02:57:05;101389.56;;;45.08;29.30
76095;BME280;64821;13.710;100.604;2024-01-11T02:58:09;101408.84;;;45.24;29.38
76095;BME280;64821;13.710;100.604;2024-01-11T02:59:13;101396.03;;;45.26;29.09
76095;BME280;64821;13.710;100.604;2024-01-11T03:00:17;101404.84;;;45.28;29.61
76095;BME280;64821;13.710;100.604;2024-01-11T03:01:21;101404.47;;;45.33;29.55
76095;BME280;64821;13.710;100.604;2024-01-11T03:02:24;101397.66;;;45.31;29.31
76095;BME280;64821;13.710;100.604;2024-01-11T03:03:28;101385.25;;;45.21;28.99
76095;BME280;64821;13.710;100.604;2024-01-11T03:04:32;101390.84;;;45.35;29.20
76095;BME280;64821;13.710;100.604;2024-01-11T03:05:36;101408.47;;;45.43;29.16
76095;BME280;64821;13.710;100.604;2024-01-11T03:06:40;101390.88;;;45.39;29.02
76095;BME280;64821;13.710;100.604;2024-01-11T03:07:44;101394.47;;;45.40;29.21
76095;BME280;64821;13.710;100.604;2024-01-11T03:08:48;101403.66;;;45.40;29.11
76095;BME280;64821;13.710;100.604;2024-01-11T03:09:54;101364.84;;;45.21;29.05
76095;BME280;64821;13.710;100.604;2024-01-11T03:10:58;101406.06;;;45.42;28.96
76095;BME280;64821;13.710;100.604;2024-01-11T03:12:02;101401.25;;;45.39;29.25
76095;BME280;64821;13.710;100.604;2024-01-11T03:13:06;101399.63;;;45.27;29.24
76095;BME280;64821;13.710;100.604;2024-01-11T03:14:10;101403.22;;;45.20;29.47
76095;BME280;64821;13.710;100.604;2024-01-11T03:15:14;101405.16;;;45.09;29.76
76095;BME280;64821;13.710;100.604;2024-01-11T03:16:18;101405.94;;;45.03;30.03
76095;BME280;64821;13.710;100.604;2024-01-11T03:17:22;101402.34;;;45.06;29.60
76095;BME280;64821;13.710;100.604;2024-01-11T03:18:26;101402.34;;;45.09;29.55
76095;BME280;64821;13.710;100.604;2024-01-11T03:19:30;101407.53;;;45.07;29.71
76095;BME280;64821;13.710;100.604;2024-01-11T03:20:34;101365.50;;;44.75;29.56
76095;BME280;64821;13.710;100.604;2024-01-11T03:21:42;101404.28;;;44.84;29.51
76095;BME280;64821;13.710;100.604;2024-01-11T03:22:46;101396.28;;;44.86;29.77
76095;BME280;64821;13.710;100.604;2024-01-11T03:23:50;101398.69;;;44.84;29.78
76095;BME280;64821;13.710;100.604;2024-01-11T03:24:56;101401.06;;;44.82;29.68
76095;BME280;64821;13.710;100.604;2024-01-11T03:26:00;101394.69;;;44.81;29.82
76095;BME280;64821;13.710;100.604;2024-01-11T03:27:05;101385.88;;;44.79;29.64
76095;BME280;64821;13.710;100.604;2024-01-11T03:28:09;101393.47;;;44.79;29.58
76095;BME280;64821;13.710;100.604;2024-01-11T03:29:12;101387.06;;;44.75;29.73
76095;BME280;64821;13.710;100.604;2024-01-11T03:30:16;101390.59;;;44.68;29.79
76095;BME280;64821;13.710;100.604;2024-01-11T03:31:20;101394.56;;;44.67;29.74
76095;BME280;64821;13.710;100.604;2024-01-11T03:32:24;101385.78;;;44.61;30.00
76095;BME280;64821;13.710;100.604;2024-01-11T03:33:28;101387.78;;;44.61;29.89
76095;BME280;64821;13.710;100.604;2024-01-11T03:34:32;101381.38;;;44.60;29.85
76095;BME280;64821;13.710;100.604;2024-01-11T03:35:36;101380.19;;;44.61;29.72
76095;BME280;64821;13.710;100.604;2024-01-11T03:36:40;101382.97;;;44.61;29.64
76095;BME280;64821;13.710;100.604;2024-01-11T03:37:44;101380.19;;;44.61;29.63
76095;BME280;64821;13.710;100.604;2024-01-11T03:38:48;101370.97;;;44.57;29.68
76095;BME280;64821;13.710;100.604;2024-01-11T03:39:56;101378.59;;;44.68;29.11
76095;BME280;64821;13.710;100.604;2024-01-11T03:40:59;101377.09;;;44.74;29.31
76095;BME280;64821;13.710;100.604;2024-01-11T03:42:04;101374.72;;;44.83;29.04
76095;BME280;64821;13.710;100.604;2024-01-11T03:43:08;101371.97;;;44.93;29.29
76095;BME280;64821;13.710;100.604;2024-01-11T03:44:12;101373.16;;;44.92;28.93
76095;BME280;64821;13.710;100.604;2024-01-11T03:45:18;101373.53;;;44.91;28.84
76095;BME280;64821;13.710;100.604;2024-01-11T03:46:22;101367.94;;;44.87;29.23
76095;BME280;64821;13.710;100.604;2024-01-11T03:47:26;101375.16;;;44.92;28.99
76095;BME280;64821;13.710;100.604;2024-01-11T03:48:30;101371.53;;;44.88;28.83
76095;BME280;64821;13.710;100.604;2024-01-11T03:49:34;101370.31;;;44.82;28.98
76095;BME280;64821;13.710;100.604;2024-01-11T03:50:38;101372.69;;;44.80;29.20
76095;BME280;64821;13.710;100.604;2024-01-11T03:51:42;101364.31;;;44.80;29.21
76095;BME280;64821;13.710;100.604;2024-01-11T03:52:46;101367.94;;;44.84;29.31
76095;BME280;64821;13.710;100.604;2024-01-11T03:53:50;101368.72;;;44.81;29.11
76095;BME280;64821;13.710;100.604;2024-01-11T03:54:56;101369.09;;;44.76;28.91
76095;BME280;64821;13.710;100.604;2024-01-11T03:56:00;101370.63;;;44.70;29.05
76095;BME280;64821;13.710;100.604;2024-01-11T03:57:04;101364.25;;;44.69;29.33
76095;BME280;64821;13.710;100.604;2024-01-11T03:58:08;101363.47;;;44.72;29.17
76095;BME280;64821;13.710;100.604;2024-01-11T03:59:12;101358.25;;;44.71;29.26
76095;BME280;64821;13.710;100.604;2024-01-11T04:00:16;101360.31;;;44.74;28.91
76095;BME280;64821;13.710;100.604;2024-01-11T04:01:20;101351.91;;;44.77;28.96
76095;BME280;64821;13.710;100.604;2024-01-11T04:02:26;101357.53;;;44.81;29.12
76095;BME280;64821;13.710;100.604;2024-01-11T04:03:29;101357.94;;;44.86;28.76
76095;BME280;64821;13.710;100.604;2024-01-11T04:04:34;101354.78;;;44.91;28.67
76095;BME280;64821;13.710;100.604;2024-01-11T04:05:38;101354.00;;;44.94;29.11
76095;BME280;64821;13.710;100.604;2024-01-11T04:06:42;101354.41;;;45.04;28.61
76095;BME280;64821;13.710;100.604;2024-01-11T04:07:46;101330.41;;;44.99;28.67
76095;BME280;64821;13.710;100.604;2024-01-11T04:08:50;101302.41;;;44.74;28.76
76095;BME280;64821;13.710;100.604;2024-01-11T04:09:55;101351.22;;;45.05;28.85
76095;BME280;64821;13.710;100.604;2024-01-11T04:11:02;101347.22;;;45.10;28.33
76095;BME280;64821;13.710;100.604;2024-01-11T04:12:07;101341.22;;;45.08;28.53
76095;BME280;64821;13.710;100.604;2024-01-11T04:13:11;101350.00;;;45.06;28.85
76095;BME280;64821;13.710;100.604;2024-01-11T04:14:15;101340.03;;;45.05;28.72
76095;BME280;64821;13.710;100.604;2024-01-11T04:15:19;101339.25;;;45.15;28.92
76095;BME280;64821;13.710;100.604;2024-01-11T04:16:22;101336.50;;;45.22;28.42
76095;BME280;64821;13.710;100.604;2024-01-11T04:17:26;101338.50;;;45.29;28.41
76095;BME280;64821;13.710;100.604;2024-01-11T04:18:30;101330.53;;;45.34;28.33
76095;BME280;64821;13.710;100.604;2024-01-11T04:19:34;101318.91;;;45.29;28.54
76095;BME280;64821;13.710;100.604;2024-01-11T04:20:38;101332.91;;;45.43;28.21
76095;BME280;64821;13.710;100.604;2024-01-11T04:21:42;101330.91;;;45.47;28.05
76095;BME280;64821;13.710;100.604;2024-01-11T04:22:46;101317.31;;;45.39;28.18
76095;BME280;64821;13.710;100.604;2024-01-11T04:23:50;101323.69;;;45.46;28.31
76095;BME280;64821;13.710;100.604;2024-01-11T04:24:56;101318.56;;;45.52;28.27
76095;BME280;64821;13.710;100.604;2024-01-11T04:26:00;101322.94;;;45.56;28.14
76095;BME280;64821;13.710;100.604;2024-01-11T04:27:04;101322.53;;;45.61;28.41
76095;BME280;64821;13.710;100.604;2024-01-11T04:28:08;101313.75;;;45.63;28.23
76095;BME280;64821;13.710;100.604;2024-01-11T04:29:12;101306.94;;;45.71;28.01
76095;BME280;64821;13.710;100.604;2024-01-11T04:30:16;101306.50;;;45.76;28.00
76095;BME280;64821;13.710;100.604;2024-01-11T04:31:20;101306.13;;;45.78;27.64
76095;BME280;64821;13.710;100.604;2024-01-11T04:32:23;101300.13;;;45.79;27.70
76095;BME280;64821;13.710;100.604;2024-01-11T04:33:27;101299.31;;;45.82;27.99
76095;BME280;64821;13.710;100.604;2024-01-11T04:34:31;101287.31;;;45.75;27.69
76095;BME280;64821;13.710;100.604;2024-01-11T04:35:35;101296.13;;;45.66;28.09
76095;BME280;64821;13.710;100.604;2024-01-11T04:36:39;101292.16;;;45.60;27.82
76095;BME280;64821;13.710;100.604;2024-01-11T04:37:43;101295.34;;;45.65;28.40
76095;BME280;64821;13.710;100.604;2024-01-11T04:38:47;101288.13;;;45.75;28.00
76095;BME280;64821;13.710;100.604;2024-01-11T04:39:51;101229.38;;;45.40;28.00
76095;BME280;64821;13.710;100.604;2024-01-11T04:40:57;101288.13;;;45.82;27.16
76095;BME280;64821;13.710;100.604;2024-01-11T04:42:00;101261.72;;;45.76;27.65
76095;BME280;64821;13.710;100.604;2024-01-11T04:43:04;101247.31;;;45.78;27.92
76095;BME280;64821;13.710;100.604;2024-01-11T04:44:08;101264.94;;;45.82;27.68
76095;BME280;64821;13.710;100.604;2024-01-11T04:45:13;101276.13;;;45.82;27.99
76095;BME280;64821;13.710;100.604;2024-01-11T04:46:18;101264.13;;;45.81;27.61
76095;BME280;64821;13.710;100.604;2024-01-11T04:47:22;101262.53;;;45.80;27.63
76095;BME280;64821;13.710;100.604;2024-01-11T04:48:26;101263.69;;;45.86;27.83
76095;BME280;64821;13.710;100.604;2024-01-11T04:49:30;101260.13;;;45.89;27.63
76095;BME280;64821;13.710;100.604;2024-01-11T04:50:34;101261.31;;;45.95;27.97
76095;BME280;64821;13.710;100.604;2024-01-11T04:51:38;101257.28;;;46.00;27.70
76095;BME280;64821;13.710;100.604;2024-01-11T04:52:42;101260.47;;;46.05;27.35
76095;BME280;64821;13.710;100.604;2024-01-11T04:53:46;101252.47;;;46.04;27.75
76095;BME280;64821;13.710;100.604;2024-01-11T04:54:50;101249.28;;;46.02;27.54
76095;BME280;64821;13.710;100.604;2024-01-11T04:55:54;101248.06;;;46.06;27.41
76095;BME280;64821;13.710;100.604;2024-01-11T04:56:59;101254.06;;;46.12;26.85
76095;BME280;64821;13.710;100.604;2024-01-11T04:58:03;101232.84;;;46.04;27.41
76095;BME280;64821;13.710;100.604;2024-01-11T04:59:07;101241.63;;;46.17;27.21
76095;BME280;64821;13.710;100.604;2024-01-11T05:00:12;101243.63;;;46.20;26.70
76095;BME280;64821;13.710;100.604;2024-01-11T05:01:17;101240.81;;;46.16;26.90
76095;BME280;64821;13.710;100.604;2024-01-11T05:02:21;101240.84;;;46.13;27.41
76095;BME280;64821;13.710;100.604;2024-01-11T05:03:25;101240.03;;;46.16;27.79
76095;BME280;64821;13.710;100.604;2024-01-11T05:04:29;101237.97;;;46.23;27.43
76095;BME280;64821;13.710;100.604;2024-01-11T05:05:33;101235.19;;;46.23;27.53
76095;BME280;64821;13.710;100.604;2024-01-11T05:06:37;101239.63;;;46.21;27.30
76095;BME280;64821;13.710;100.604;2024-01-11T05:07:41;101191.28;;;45.95;27.42
76095;BME280;64821;13.710;100.604;2024-01-11T05:08:45;101227.56;;;46.24;27.02
76095;BME280;64821;13.710;100.604;2024-01-11T05:09:49;101230.41;;;46.20;27.32
76095;BME280;64821;13.710;100.604;2024-01-11T05:10:53;101232.81;;;46.15;27.32
76095;BME280;64821;13.710;100.604;2024-01-11T05:11:59;101222.06;;;46.06;26.68
76095;BME280;64821;13.710;100.604;2024-01-11T05:13:03;101217.69;;;45.98;27.76
76095;BME280;64821;13.710;100.604;2024-01-11T05:14:07;101214.91;;;45.94;27.72
76095;BME280;64821;13.710;100.604;2024-01-11T05:15:11;101212.13;;;45.87;27.51
76095;BME280;64821;13.710;100.604;2024-01-11T05:16:22;101208.94;;;45.82;26.78
76095;BME280;64821;13.710;100.604;2024-01-11T05:17:26;101214.56;;;45.71;27.60
76095;BME280;64821;13.710;100.604;2024-01-11T05:18:30;101213.75;;;45.70;28.01
76095;BME280;64821;13.710;100.604;2024-01-11T05:19:37;101212.16;;;45.73;27.95
76095;BME280;64821;13.710;100.604;2024-01-11T05:20:41;101210.56;;;45.72;27.39
76095;BME280;64821;13.710;100.604;2024-01-11T05:21:45;101202.13;;;45.76;27.55
76095;BME280;64821;13.710;100.604;2024-01-11T05:22:49;101197.31;;;45.80;27.53
76095;BME280;64821;13.710;100.604;2024-01-11T05:23:52;101200.53;;;45.75;27.77
76095;BME280;64821;13.710;100.604;2024-01-11T05:24:56;101198.53;;;45.75;27.57
76095;BME280;64821;13.710;100.604;2024-01-11T05:26:00;101201.72;;;45.77;27.29
76095;BME280;64821;13.710;100.604;2024-01-11T05:27:06;101194.94;;;45.75;27.21
76095;BME280;64821;13.710;100.604;2024-01-11T05:28:10;101194.53;;;45.83;27.36